• Join FlightAware (Why Join?)
  • Login
  • US Flag 
12:51PM EDT


 

Airport Tracker/Info


-or-


 

Live Flight TrackerFlight Track Log ✈ AFL1861 ✈ 27-Dec-2013 ✈ UDYZ / EVN - UUEE / SVO

Flight Track Log - Related Links

Times and Time Zones

All times are in EST time to prevent confusion due to time zone crossing. See the AFL1861 flight status page for this flight to view local times or setup timezone preferences in your user account.

Time Position Orientation Groundspeed Altitude Reporting Facility
EST Latitude Longitude Course Direction KTS MPH feet Rate Location/Type
08:22AM 44.3601 43.4773 344° North  Level Estimated
08:23AM 44.5081 43.4170 344° North  Level Estimated
08:24AM 44.6561 43.3564 344° North  Level Estimated
08:25AM 44.8041 43.2955 344° North  Level Estimated
08:26AM 44.9520 43.2343 344° North  Level Estimated
08:27AM 45.0999 43.1727 344° North  Level Estimated
08:28AM 45.2478 43.1109 344° North  Level Estimated
08:29AM 45.3956 43.0487 344° North  Level Estimated
08:30AM 45.5434 42.9862 344° North  Level Estimated
08:31AM 45.6911 42.9233 343° North  Level Estimated
08:32AM 45.8389 42.8602 343° North  Level Estimated
08:33AM 45.9865 42.7966 343° North  Level Estimated
08:34AM 46.1342 42.7328 343° North  Level Estimated
08:35AM 46.2818 42.6686 343° North  Level Estimated
08:36AM 46.4294 42.6041 343° North  Level Estimated
08:37AM 46.5769 42.5392 343° North  Level Estimated
08:38AM 46.7244 42.4739 343° North  Level Estimated
08:39AM 46.8719 42.4083 343° North  Level Estimated
08:40AM 47.0193 42.3424 343° North  Level Estimated
08:41AM 47.1667 42.2761 343° North  Level Estimated
08:42AM 47.3141 42.2094 343° North  Level Estimated
08:43AM 47.4614 42.1423 343° North  Level Estimated
08:44AM 47.6087 42.0748 343° North  Level Estimated
08:45AM 47.7559 42.0070 343° North  Level Estimated
08:46AM 47.9031 41.9388 343° North  Level Estimated
08:47AM 48.0503 41.8702 343° North  Level Estimated
08:48AM 48.1974 41.8012 343° North  Level Estimated
08:49AM 48.3445 41.7318 343° North  Level Estimated
08:50AM 48.4915 41.6620 343° North  Level Estimated
08:51AM 48.6385 41.5918 342° North  Level Estimated
08:52AM 48.7855 41.5212 342° North  Level Estimated
08:53AM 48.9324 41.4502 342° North  Level Estimated
08:54AM 49.0792 41.3788 342° North  Level Estimated
08:55AM 49.2260 41.3069 342° North  Level Estimated
08:56AM 49.3728 41.2346 342° North  Level Estimated
08:57AM 49.5195 41.1619 342° North  Level Estimated
08:58AM 49.6662 41.0887 342° North  Level Estimated
08:59AM 49.8128 41.0151 342° North  Level Estimated
09:00AM 49.9594 40.9411 342° North  Level Estimated
09:01AM 50.1060 40.8666 342° North  Level Estimated
09:02AM 50.2524 40.7916 342° North  Level Estimated
09:03AM 50.3989 40.7162 342° North  Level Estimated
09:04AM 50.5453 40.6403 342° North  Level Estimated
09:05AM 50.6916 40.5639 342° North  Level Estimated
09:06AM 50.8379 40.4871 342° North  Level Estimated
09:07AM 50.9841 40.4098 342° North  Level Estimated
09:08AM 51.1303 40.3319 342° North  Level Estimated
09:09AM 51.2765 40.2536 341° North  Level Estimated
09:10AM 51.4226 40.1748 341° North  Level Estimated
09:11AM 51.5686 40.0955 341° North  Level Estimated
09:12AM 51.7146 40.0157 341° North  Level Estimated
09:13AM 51.8605 39.9353 341° North  Level Estimated
09:14AM 52.0064 39.8545 341° North  Level Estimated
09:15AM 52.1522 39.7731 341° North  Level Estimated
09:16AM 52.2979 39.6912 341° North  Level Estimated
09:17AM 52.4436 39.6087 341° North  Level Estimated
09:18AM 52.5893 39.5257 341° North  Level Estimated
09:19AM 52.7349 39.4421 341° North  Level Estimated
09:20AM 52.8804 39.3580 341° North  Level Estimated
09:21AM 53.0258 39.2733 341° North  Level Estimated
09:22AM 53.1712 39.1880 341° North  Level Estimated
09:23AM 53.3166 39.1022 341° North  Level Estimated
09:24AM 53.4619 39.0157 340° North  Level Estimated
09:24AM 51.5623 39.8074 340° North 449 517 34,000  Level FlightAware ADS-B
09:24AM 51.6187 39.7489 327° Northwest 449 517 34,000  Level FlightAware ADS-B
09:25AM 51.6799 39.6851 327° Northwest 449 517 34,000  Level FlightAware ADS-B
09:26AM 51.7807 39.5798 327° Northwest 450 518 34,000  Level FlightAware ADS-B
09:26AM 51.8503 39.5068 327° Northwest 450 518 34,000  Level FlightAware ADS-B
09:27AM 51.9205 39.4326 327° Northwest 450 518 34,000  Level FlightAware ADS-B
09:28AM 51.9866 39.3628 327° Northwest 449 517 34,000  Level FlightAware ADS-B
09:28AM 52.0554 39.2898 327° Northwest 452 520 34,000  Level FlightAware ADS-B
09:29AM 52.1273 39.2131 327° Northwest 453 521 34,000  Level FlightAware ADS-B
09:30AM 52.1961 39.1398 327° Northwest 453 521 34,000  Level FlightAware ADS-B
09:30AM 52.2627 39.0683 327° Northwest 453 521 34,000  Level FlightAware ADS-B
09:31AM 52.3313 38.9982 328° Northwest 458 527 34,000  Level FlightAware ADS-B
09:32AM 52.4203 38.9316 335° Northwest 464 534 34,000  Level FlightAware ADS-B
09:32AM 52.4955 38.8811 338° Northwest 463 533 34,000  Level FlightAware ADS-B
09:33AM 52.5735 38.8267 337° Northwest 461 531 34,000  Level FlightAware ADS-B
09:34AM 52.6555 38.7690 337° Northwest 459 528 34,000  Level FlightAware ADS-B
09:35AM 52.7321 38.7149 337° Northwest 458 527 34,000  Level FlightAware ADS-B
09:35AM 52.8094 38.6604 337° Northwest 457 526 34,000  Level FlightAware ADS-B
09:38AM 53.1631 38.5306 348° North  Level Estimated
09:39AM 53.3136 38.4747 347° North  Level Estimated
09:40AM 53.4640 38.4184 347° North  Level Estimated
09:41AM 53.6144 38.3616 347° North  Level Estimated
09:42AM 53.7649 38.3045 347° North  Level Estimated
09:43AM 53.9152 38.2470 347° North  Level Estimated
09:44AM 54.0656 38.1891 347° North  Level Estimated
09:45AM 54.2159 38.1307 347° North  Level Estimated
09:46AM 54.3662 38.0719 347° North  Level Estimated
09:47AM 54.5164 38.0127 347° North  Level Estimated
09:48AM 54.6667 37.9530 347° North  Level Estimated
09:49AM 54.8169 37.8929 347° North  Level Estimated
09:50AM 54.9670 37.8324 347° North  Level Estimated
09:51AM 55.1172 37.7714 347° North  Level Estimated
09:52AM 55.2673 37.7099 347° North  Level Estimated
09:53AM 55.4174 37.6480 347° North  Level Estimated
09:54AM 55.5674 37.5856 347° North  Level Estimated
09:55AM 55.7174 37.5227 347° North  Level Estimated
09:56AM 55.8674 37.4594 347° North  Level Estimated
09:57AM 55.9726 37.4146 347° North  Level Estimated
09:58AM 55.9726 37.4146 344° North  Level Estimated
09:59AM 55.9726 37.4146 344° North  Level Estimated
10:00AM 55.9726 37.4146 344° North  Level Estimated
10:01AM 55.9726 37.4146 344° North  Level Estimated
10:02AM 55.9726 37.4146 344° North  Level Estimated
10:03AM 55.9726 37.4146 344° North  Level Estimated
10:04AM 55.9726 37.4146 344° North  Level Estimated
10:05AM 55.9726 37.4146 344° North  Level Estimated
10:06AM 55.9726 37.4146 344° North  Level Estimated
10:07AM 55.9726 37.4146 344° North  Level Estimated
10:08AM 55.9726 37.4146 344° North  Level Estimated
10:09AM 55.9726 37.4146 344° North  Level Estimated
10:10AM 55.9726 37.4146 344° North  Level Estimated
10:11AM 55.9726 37.4146 344° North  Level Estimated
10:12AM 55.9726 37.4146 344° North  Level Estimated
10:13AM 55.9726 37.4146 344° North  Level Estimated
10:14AM 55.9726 37.4146 344° North  Level Estimated
10:15AM 55.9726 37.4146 344° North  Level Estimated
10:16AM 55.9726 37.4146 344° North  Level Estimated
10:17AM 55.9726 37.4146 344° North  Level Estimated
10:18AM 55.9726 37.4146 344° North  Level Estimated
10:19AM 55.9726 37.4146 344° North  Level Estimated